Time;durP1;ratioP1;P1;durP2;ratioP2;P2;SDS_P1;SDS_P2;PMS_P1;PMS_P2;Temp;Humidity;BMP_temperature;BMP_pressure;BME280_temperature;BME280_humidity;BME280_pressure;Samples;Min_cycle;Max_cycle;Signal;HPM_P1;HPM_P2
2023/04/18 00:00:58;;;;;;;9.50;8.20;;;;;;;;;;5031393;28;20645;-75
2023/04/18 00:03:24;;;;;;;8.00;7.20;;;;;;;;;;5031243;28;20669;-75
2023/04/18 00:05:50;;;;;;;10.00;7.70;;;;;;;;;;5031573;28;20179;-74
2023/04/18 00:08:16;;;;;;;10.37;7.97;;;;;;;;;;5031577;28;20594;-74
2023/04/18 00:10:42;;;;;;;9.60;7.37;;;;;;;;;;5031509;28;20178;-74
2023/04/18 00:13:09;;;;;;;10.03;6.83;;;;;;;;;;5031065;28;20201;-74
2023/04/18 00:15:35;;;;;;;8.67;7.70;;;;;;;;;;5031428;28;20657;-75
2023/04/18 00:18:02;;;;;;;9.13;8.23;;;;;;;;;;5029990;28;20222;-75
2023/04/18 00:20:28;;;;;;;8.57;7.50;;;;;;;;;;5031281;28;20512;-75
2023/04/18 00:22:54;;;;;;;9.53;7.90;;;;;;;;;;5030928;28;20530;-75
2023/04/18 00:25:21;;;;;;;9.53;8.17;;;;;;;;;;5030011;28;20560;-75
2023/04/18 00:27:47;;;;;;;8.83;7.30;;;;;;;;;;5031281;28;20229;-74
2023/04/18 00:30:13;;;;;;;11.07;8.37;;;;;;;;;;5030093;28;20218;-74
2023/04/18 00:32:39;;;;;;;11.70;8.80;;;;;;;;;;5030782;28;20197;-74
2023/04/18 00:35:06;;;;;;;11.83;8.90;;;;;;;;;;5029987;28;20206;-75
2023/04/18 00:37:32;;;;;;;9.83;8.17;;;;;;;;;;5029949;28;20214;-75
2023/04/18 00:39:58;;;;;;;10.70;9.30;;;;;;;;;;5030979;28;20189;-75
2023/04/18 00:42:26;;;;;;;12.10;8.97;;;;;;;;;;5030929;28;20645;-76
2023/04/18 00:44:52;;;;;;;10.50;8.90;;;;;;;;;;5031101;28;20693;-75
2023/04/18 00:47:19;;;;;;;11.47;9.60;;;;;;;;;;5030925;28;20234;-75
2023/04/18 00:49:45;;;;;;;11.43;9.80;;;;;;;;;;5030774;28;20209;-75
2023/04/18 00:52:11;;;;;;;12.63;8.50;;;;;;;;;;5030788;28;20616;-75
2023/04/18 00:54:38;;;;;;;13.03;10.03;;;;;;;;;;5029820;28;20312;-74
2023/04/18 00:57:05;;;;;;;14.37;10.30;;;;;;;;;;5030876;28;20217;-76
2023/04/18 00:59:33;;;;;;;11.70;8.73;;;;;;;;;;5030874;28;20178;-75
2023/04/18 01:02:00;;;;;;;13.60;10.03;;;;;;;;;;5030631;28;20175;-75
2023/04/18 01:04:28;;;;;;;11.97;9.80;;;;;;;;;;5029595;28;20202;-74
2023/04/18 01:06:54;;;;;;;12.47;9.60;;;;;;;;;;5029513;28;20187;-74
2023/04/18 01:09:21;;;;;;;12.37;10.23;;;;;;;;;;5029704;28;20182;-74
2023/04/18 01:11:47;;;;;;;11.37;9.90;;;;;;;;;;5013993;28;20662;-76
2023/04/18 01:14:15;;;;;;;12.03;9.33;;;;;;;;;;5033385;28;20257;-75
2023/04/18 01:16:42;;;;;;;12.10;9.53;;;;;;;;;;5034490;28;20248;-74
2023/04/18 01:19:10;;;;;;;9.70;8.70;;;;;;;;;;5034494;28;20210;-74
2023/04/18 01:21:40;;;;;;;13.03;9.67;;;;;;;;;;5033440;28;20190;-74
2023/04/18 01:24:07;;;;;;;11.20;9.53;;;;;;;;;;5034307;28;20175;-75
2023/04/18 01:26:33;;;;;;;11.20;9.67;;;;;;;;;;5033286;28;20223;-75
2023/04/18 01:28:59;;;;;;;9.87;8.67;;;;;;;;;;5033259;28;20185;-74
2023/04/18 01:31:25;;;;;;;11.53;9.67;;;;;;;;;;5033444;28;20179;-75
2023/04/18 01:33:52;;;;;;;12.17;10.00;;;;;;;;;;5032850;28;20186;-75
2023/04/18 01:36:18;;;;;;;11.07;9.23;;;;;;;;;;5033145;28;20190;-75
2023/04/18 01:38:44;;;;;;;11.10;9.30;;;;;;;;;;5032853;28;20614;-75
2023/04/18 01:41:10;;;;;;;13.03;9.33;;;;;;;;;;5034315;28;20185;-75
2023/04/18 01:43:36;;;;;;;11.10;9.07;;;;;;;;;;5032759;28;20174;-75
2023/04/18 01:46:03;;;;;;;13.67;9.60;;;;;;;;;;5032918;28;20580;-74
2023/04/18 01:48:29;;;;;;;11.83;8.60;;;;;;;;;;5032759;28;20202;-75
2023/04/18 01:50:55;;;;;;;13.07;9.60;;;;;;;;;;5034049;28;20233;-74
2023/04/18 01:53:22;;;;;;;12.17;9.63;;;;;;;;;;5033808;28;20178;-74
2023/04/18 01:55:49;;;;;;;11.37;9.77;;;;;;;;;;5032679;28;20190;-75
2023/04/18 01:58:17;;;;;;;11.63;9.60;;;;;;;;;;5032375;28;20324;-74
2023/04/18 02:00:45;;;;;;;13.47;9.30;;;;;;;;;;5032572;28;20244;-74
2023/04/18 02:03:11;;;;;;;12.30;9.33;;;;;;;;;;5015747;28;20181;-75
2023/04/18 02:05:37;;;;;;;10.63;9.10;;;;;;;;;;5033663;28;20166;-75
2023/04/18 02:08:04;;;;;;;10.20;8.70;;;;;;;;;;5032263;28;20210;-74
2023/04/18 02:10:31;;;;;;;11.37;9.03;;;;;;;;;;5033793;28;20179;-74
2023/04/18 02:12:57;;;;;;;11.77;8.80;;;;;;;;;;5032117;28;20244;-74
2023/04/18 02:15:23;;;;;;;11.23;9.20;;;;;;;;;;5031517;28;20421;-74
2023/04/18 02:17:49;;;;;;;11.00;9.33;;;;;;;;;;5033371;28;20210;-75
2023/04/18 02:20:15;;;;;;;13.90;9.80;;;;;;;;;;5032129;28;20174;-75
2023/04/18 02:22:42;;;;;;;12.90;10.33;;;;;;;;;;5032566;28;20167;-75
2023/04/18 02:25:09;;;;;;;15.80;10.50;;;;;;;;;;5032523;28;20167;-74
2023/04/18 02:27:35;;;;;;;11.23;9.60;;;;;;;;;;5032064;28;20281;-75
2023/04/18 02:30:02;;;;;;;14.60;10.87;;;;;;;;;;5032070;28;20183;-75
2023/04/18 02:32:28;;;;;;;12.03;9.70;;;;;;;;;;5027292;28;20687;-75
2023/04/18 02:34:54;;;;;;;11.90;10.07;;;;;;;;;;5013631;28;20183;-74
2023/04/18 02:37:20;;;;;;;11.60;9.20;;;;;;;;;;5013860;28;20221;-74
2023/04/18 02:39:47;;;;;;;11.53;9.00;;;;;;;;;;5022862;28;20180;-75
2023/04/18 02:42:13;;;;;;;12.97;10.17;;;;;;;;;;5030790;28;20202;-75
2023/04/18 02:44:39;;;;;;;13.40;10.10;;;;;;;;;;5025656;28;20217;-74
2023/04/18 02:47:05;;;;;;;13.33;10.30;;;;;;;;;;4995785;28;20215;-75
2023/04/18 02:49:33;;;;;;;17.43;11.07;;;;;;;;;;5029313;28;20191;-74
2023/04/18 02:52:00;;;;;;;12.33;9.93;;;;;;;;;;5024435;28;20194;-76
2023/04/18 02:54:26;;;;;;;12.70;10.60;;;;;;;;;;5011984;28;20179;-74
2023/04/18 02:56:58;;;;;;;12.20;9.70;;;;;;;;;;4995568;28;20222;-74
2023/04/18 02:59:39;;;;;;;16.90;10.30;;;;;;;;;;5030274;28;20234;-75
2023/04/18 03:02:17;;;;;;;11.77;9.50;;;;;;;;;;4987112;28;20190;-74
2023/04/18 03:04:50;;;;;;;14.63;10.60;;;;;;;;;;5006435;28;20278;-74
2023/04/18 03:07:16;;;;;;;15.43;10.90;;;;;;;;;;5011825;28;20268;-74
2023/04/18 03:09:43;;;;;;;14.17;10.50;;;;;;;;;;5013716;28;20175;-74
2023/04/18 03:12:17;;;;;;;13.00;11.20;;;;;;;;;;5006443;28;20437;-75
2023/04/18 03:14:43;;;;;;;14.70;11.30;;;;;;;;;;5003245;28;20186;-75
2023/04/18 03:17:11;;;;;;;16.60;11.13;;;;;;;;;;5013582;28;20694;-74
2023/04/18 03:19:40;;;;;;;16.83;11.10;;;;;;;;;;5010872;28;20265;-75
2023/04/18 03:22:09;;;;;;;13.43;11.20;;;;;;;;;;5018907;28;20699;-75
2023/04/18 03:24:42;;;;;;;15.60;11.60;;;;;;;;;;5013921;28;20309;-75
2023/04/18 03:27:10;;;;;;;12.87;10.70;;;;;;;;;;5026408;28;20190;-74
2023/04/18 03:29:39;;;;;;;15.30;11.60;;;;;;;;;;5029942;28;20596;-74
2023/04/18 03:32:06;;;;;;;14.40;11.53;;;;;;;;;;5014552;28;20701;-74
2023/04/18 03:34:32;;;;;;;13.00;11.37;;;;;;;;;;5043263;23;20633;-72
2023/04/18 03:36:58;;;;;;;12.70;10.33;;;;;;;;;;5010850;28;20508;-72
2023/04/18 03:39:27;;;;;;;18.33;12.60;;;;;;;;;;5010892;28;20582;-72
2023/04/18 03:41:54;;;;;;;16.93;12.23;;;;;;;;;;4994827;28;20271;-72
2023/04/18 03:44:21;;;;;;;14.37;11.87;;;;;;;;;;5010482;28;20548;-71
2023/04/18 03:46:47;;;;;;;16.45;12.77;;;;;;;;;;5010635;28;20458;-71
2023/04/18 03:49:13;;;;;;;13.60;11.40;;;;;;;;;;5009582;28;20747;-71
2023/04/18 03:51:46;;;;;;;13.60;11.90;;;;;;;;;;5011986;28;20230;-71
2023/04/18 03:54:12;;;;;;;16.17;11.23;;;;;;;;;;5010219;28;20199;-71
2023/04/18 03:56:38;;;;;;;14.93;12.00;;;;;;;;;;5012156;28;20175;-71
2023/04/18 03:59:04;;;;;;;13.90;11.23;;;;;;;;;;4993943;28;20218;-71
2023/04/18 04:01:30;;;;;;;16.60;11.20;;;;;;;;;;5010635;28;20175;-71
2023/04/18 04:03:56;;;;;;;17.47;12.80;;;;;;;;;;5011102;28;20203;-71
2023/04/18 04:06:23;;;;;;;15.63;11.70;;;;;;;;;;5010585;28;20251;-72
2023/04/18 04:08:49;;;;;;;12.73;10.73;;;;;;;;;;5011525;28;20245;-72
2023/04/18 04:11:20;;;;;;;14.17;11.00;;;;;;;;;;5010368;28;20306;-71
2023/04/18 04:13:46;;;;;;;14.87;11.37;;;;;;;;;;5009847;28;20186;-71
2023/04/18 04:16:15;;;;;;;14.13;11.43;;;;;;;;;;5010496;28;20221;-71
2023/04/18 04:18:42;;;;;;;13.63;11.07;;;;;;;;;;5010217;28;20722;-72
2023/04/18 04:21:09;;;;;;;14.33;11.53;;;;;;;;;;5010363;28;20642;-72
2023/04/18 04:23:45;;;;;;;13.17;11.00;;;;;;;;;;5009959;28;20228;-71
2023/04/18 04:26:21;;;;;;;15.70;12.17;;;;;;;;;;4993974;28;20288;-72
2023/04/18 04:28:54;;;;;;;17.13;13.07;;;;;;;;;;5010423;28;20194;-71
2023/04/18 04:31:23;;;;;;;13.93;11.97;;;;;;;;;;5010164;28;20175;-71
2023/04/18 04:33:49;;;;;;;13.67;11.40;;;;;;;;;;5009605;28;20187;-71
2023/04/18 04:36:19;;;;;;;14.33;11.77;;;;;;;;;;5010186;28;20659;-72
2023/04/18 04:38:47;;;;;;;14.77;11.90;;;;;;;;;;5010050;28;20207;-72
2023/04/18 04:41:14;;;;;;;13.67;12.13;;;;;;;;;;5010034;28;20246;-72
2023/04/18 04:43:41;;;;;;;12.53;11.10;;;;;;;;;;5010902;28;20231;-72
2023/04/18 04:46:12;;;;;;;17.30;12.80;;;;;;;;;;5009990;28;20176;-71
2023/04/18 04:48:38;;;;;;;16.50;11.43;;;;;;;;;;4997558;28;20211;-71
2023/04/18 04:51:04;;;;;;;13.23;10.67;;;;;;;;;;5013843;28;20194;-71
2023/04/18 04:53:31;;;;;;;14.80;11.63;;;;;;;;;;5014993;28;20274;-71
2023/04/18 04:55:58;;;;;;;17.43;12.03;;;;;;;;;;5013681;28;20207;-71
2023/04/18 04:58:25;;;;;;;15.87;11.57;;;;;;;;;;5013930;28;20294;-72
2023/04/18 05:01:11;;;;;;;16.20;12.17;;;;;;;;;;5015295;28;20179;-72
2023/04/18 05:03:37;;;;;;;13.93;12.20;;;;;;;;;;5013366;28;20659;-72
2023/04/18 05:06:04;;;;;;;12.97;10.97;;;;;;;;;;4997616;28;20179;-72
2023/04/18 05:08:30;;;;;;;12.73;10.20;;;;;;;;;;5015010;28;20187;-72
2023/04/18 05:10:56;;;;;;;14.37;12.53;;;;;;;;;;5014980;28;20206;-72
2023/04/18 05:13:22;;;;;;;13.27;10.73;;;;;;;;;;5014564;28;20183;-72
2023/04/18 05:15:48;;;;;;;13.37;11.50;;;;;;;;;;5014819;28;20211;-72
2023/04/18 05:18:14;;;;;;;14.30;11.97;;;;;;;;;;5014676;28;20709;-72
2023/04/18 05:20:40;;;;;;;13.43;10.73;;;;;;;;;;5014547;28;20187;-72
2023/04/18 05:23:07;;;;;;;14.27;11.53;;;;;;;;;;5014517;28;20171;-72
2023/04/18 05:25:33;;;;;;;13.07;11.00;;;;;;;;;;5013382;28;20568;-72
2023/04/18 05:28:00;;;;;;;13.40;11.17;;;;;;;;;;5013389;28;20668;-71
2023/04/18 05:30:26;;;;;;;12.63;10.77;;;;;;;;;;5012541;28;20190;-73
2023/04/18 05:32:52;;;;;;;14.33;11.50;;;;;;;;;;5007354;28;20190;-72
2023/04/18 05:35:18;;;;;;;16.30;11.67;;;;;;;;;;4993375;28;20216;-72
2023/04/18 05:37:44;;;;;;;13.73;11.77;;;;;;;;;;4999735;28;20693;-73
2023/04/18 05:40:11;;;;;;;13.73;11.20;;;;;;;;;;5000812;28;20238;-70
2023/04/18 05:42:37;;;;;;;13.93;11.17;;;;;;;;;;4997894;28;20323;-70
2023/04/18 05:45:03;;;;;;;14.70;9.83;;;;;;;;;;5002102;28;20245;-70
2023/04/18 05:47:29;;;;;;;13.63;10.93;;;;;;;;;;4998387;28;20192;-74
2023/04/18 05:49:56;;;;;;;16.83;12.53;;;;;;;;;;5011504;28;20182;-74
2023/04/18 05:52:22;;;;;;;15.10;11.13;;;;;;;;;;5003613;28;20183;-75
2023/04/18 05:54:48;;;;;;;12.13;10.83;;;;;;;;;;4994443;28;20269;-73
2023/04/18 05:57:14;;;;;;;14.23;10.97;;;;;;;;;;4995502;28;20231;-73
2023/04/18 05:59:41;;;;;;;16.73;13.50;;;;;;;;;;4994520;28;20176;-74
2023/04/18 06:02:11;;;;;;;14.40;11.43;;;;;;;;;;4994390;28;20172;-73
2023/04/18 06:04:40;;;;;;;13.50;11.10;;;;;;;;;;4993141;28;20242;-73
2023/04/18 06:07:07;;;;;;;14.00;11.47;;;;;;;;;;4994402;28;20388;-73
2023/04/18 06:09:33;;;;;;;12.40;10.53;;;;;;;;;;4977073;28;20188;-73
2023/04/18 06:12:00;;;;;;;15.13;11.47;;;;;;;;;;4994177;28;20202;-73
2023/04/18 06:14:27;;;;;;;14.90;11.60;;;;;;;;;;4994819;28;20195;-73
2023/04/18 06:16:53;;;;;;;17.47;12.30;;;;;;;;;;4994435;28;20664;-75
2023/04/18 06:19:20;;;;;;;14.73;12.30;;;;;;;;;;4976867;28;20215;-73
2023/04/18 06:21:48;;;;;;;17.73;12.63;;;;;;;;;;4976430;28;20618;-77
2023/04/18 06:24:15;;;;;;;16.27;11.97;;;;;;;;;;5011328;28;20207;-73
2023/04/18 06:26:41;;;;;;;15.37;12.57;;;;;;;;;;5006821;28;20184;-74
2023/04/18 06:29:08;;;;;;;13.17;11.43;;;;;;;;;;4994079;28;20184;-74
2023/04/18 06:31:34;;;;;;;15.20;12.10;;;;;;;;;;4994067;28;20186;-74
2023/04/18 06:34:00;;;;;;;15.67;12.17;;;;;;;;;;4993614;28;20258;-75
2023/04/18 06:36:27;;;;;;;15.73;12.47;;;;;;;;;;4994523;28;20180;-74
2023/04/18 06:38:53;;;;;;;14.77;11.67;;;;;;;;;;4996137;28;20199;-74
2023/04/18 06:41:21;;;;;;;15.17;12.57;;;;;;;;;;5005058;28;20286;-75
2023/04/18 06:43:50;;;;;;;16.10;11.87;;;;;;;;;;5013370;28;20179;-74
2023/04/18 06:46:17;;;;;;;14.03;12.10;;;;;;;;;;5012179;28;20179;-74
2023/04/18 06:48:44;;;;;;;15.90;12.20;;;;;;;;;;5010750;28;20185;-75
2023/04/18 06:51:11;;;;;;;14.40;11.63;;;;;;;;;;4995591;28;20689;-75
2023/04/18 06:53:38;;;;;;;14.17;11.53;;;;;;;;;;5010260;28;20191;-74
2023/04/18 06:56:04;;;;;;;15.47;12.13;;;;;;;;;;5010877;28;20738;-74
2023/04/18 06:58:31;;;;;;;14.13;11.50;;;;;;;;;;5012365;28;20250;-74
2023/04/18 07:00:57;;;;;;;12.73;10.93;;;;;;;;;;5008333;28;20176;-74
2023/04/18 07:03:24;;;;;;;14.70;11.97;;;;;;;;;;4991699;28;20175;-74
2023/04/18 07:05:51;;;;;;;16.83;12.90;;;;;;;;;;4993436;28;20188;-74
2023/04/18 07:08:17;;;;;;;15.10;12.33;;;;;;;;;;4997862;28;20615;-74
2023/04/18 07:10:44;;;;;;;16.63;12.60;;;;;;;;;;5010958;28;20524;-74
2023/04/18 07:13:10;;;;;;;14.73;12.00;;;;;;;;;;5012369;28;20191;-74
2023/04/18 07:15:37;;;;;;;14.63;11.43;;;;;;;;;;5002690;28;20262;-74
2023/04/18 07:18:04;;;;;;;14.00;10.80;;;;;;;;;;5012331;28;20213;-74
2023/04/18 07:20:30;;;;;;;14.63;12.00;;;;;;;;;;5012718;28;20171;-74
2023/04/18 07:22:56;;;;;;;15.20;11.93;;;;;;;;;;5012197;28;20202;-75
2023/04/18 07:25:23;;;;;;;13.63;11.20;;;;;;;;;;5012463;28;20265;-74
2023/04/18 07:27:50;;;;;;;13.67;11.53;;;;;;;;;;5012567;28;20183;-74
2023/04/18 07:30:16;;;;;;;16.77;12.27;;;;;;;;;;5002352;28;20205;-74
2023/04/18 07:32:43;;;;;;;16.63;12.50;;;;;;;;;;5002062;28;20663;-74
2023/04/18 07:35:10;;;;;;;16.30;12.03;;;;;;;;;;5006210;28;20215;-74
2023/04/18 07:37:36;;;;;;;15.17;11.20;;;;;;;;;;5011145;28;20284;-75
2023/04/18 07:40:03;;;;;;;16.33;12.40;;;;;;;;;;5011062;28;20654;-74
2023/04/18 07:42:30;;;;;;;16.20;11.80;;;;;;;;;;4996549;28;20188;-74
2023/04/18 07:44:57;;;;;;;14.97;11.60;;;;;;;;;;5012257;28;20225;-73
2023/04/18 07:47:25;;;;;;;15.63;12.10;;;;;;;;;;4998571;28;20264;-73
2023/04/18 07:49:51;;;;;;;15.03;11.87;;;;;;;;;;5000549;28;20270;-74
2023/04/18 07:52:17;;;;;;;14.60;11.57;;;;;;;;;;4992131;28;20198;-74
2023/04/18 07:54:44;;;;;;;15.87;12.00;;;;;;;;;;4991289;28;20204;-74
2023/04/18 07:57:10;;;;;;;16.50;12.10;;;;;;;;;;4991438;28;20646;-74
2023/04/18 07:59:37;;;;;;;13.40;10.80;;;;;;;;;;4991363;28;20204;-74
2023/04/18 08:02:03;;;;;;;17.07;11.87;;;;;;;;;;4992139;28;20251;-74
2023/04/18 08:04:30;;;;;;;13.70;11.13;;;;;;;;;;5006646;28;20235;-74
2023/04/18 08:06:56;;;;;;;15.27;11.60;;;;;;;;;;5000124;28;20214;-74
2023/04/18 08:09:22;;;;;;;14.20;11.77;;;;;;;;;;4992361;28;20248;-74
2023/04/18 08:11:49;;;;;;;14.57;11.53;;;;;;;;;;5009743;28;20191;-74
2023/04/18 08:14:15;;;;;;;14.07;11.57;;;;;;;;;;5011298;28;20275;-74
2023/04/18 08:16:42;;;;;;;13.13;11.07;;;;;;;;;;4993976;28;20184;-74
2023/04/18 08:19:08;;;;;;;12.50;10.73;;;;;;;;;;4992014;28;20212;-74
2023/04/18 08:21:35;;;;;;;16.37;11.60;;;;;;;;;;4994516;28;20188;-74
2023/04/18 08:24:01;;;;;;;13.57;11.30;;;;;;;;;;5000463;28;20295;-74
2023/04/18 08:26:28;;;;;;;14.93;11.43;;;;;;;;;;5011685;28;20262;-74
2023/04/18 08:28:54;;;;;;;13.93;10.67;;;;;;;;;;5011334;28;20179;-74
2023/04/18 08:31:21;;;;;;;14.07;11.17;;;;;;;;;;5011546;28;20183;-76
2023/04/18 08:33:47;;;;;;;13.90;11.13;;;;;;;;;;5010626;28;20186;-74
2023/04/18 08:36:14;;;;;;;14.33;11.20;;;;;;;;;;5010053;28;20694;-74
2023/04/18 08:38:40;;;;;;;13.93;11.67;;;;;;;;;;5002691;28;20703;-74
2023/04/18 08:41:08;;;;;;;13.40;10.73;;;;;;;;;;4993235;28;20558;-74
2023/04/18 08:43:35;;;;;;;13.90;11.50;;;;;;;;;;4990248;28;20198;-74
2023/04/18 08:46:01;;;;;;;14.60;11.37;;;;;;;;;;4991575;28;20750;-74
2023/04/18 08:48:28;;;;;;;13.27;10.87;;;;;;;;;;4991540;28;20556;-74
2023/04/18 08:50:58;;;;;;;15.07;10.83;;;;;;;;;;4990584;28;20184;-74
2023/04/18 08:53:25;;;;;;;15.20;10.40;;;;;;;;;;4991773;28;21018;-74
2023/04/18 08:55:55;;;;;;;12.67;9.87;;;;;;;;;;4991648;28;20200;-74
2023/04/18 08:58:23;;;;;;;14.57;11.00;;;;;;;;;;5006804;28;20682;-74
2023/04/18 09:00:51;;;;;;;13.80;10.33;;;;;;;;;;5011452;28;20195;-74
2023/04/18 09:03:33;;;;;;;13.37;10.27;;;;;;;;;;5009683;28;20186;-74
2023/04/18 09:06:17;;;;;;;12.77;10.07;;;;;;;;;;5011201;28;20203;-74
2023/04/18 09:08:58;;;;;;;14.33;11.07;;;;;;;;;;4994299;28;20249;-75
2023/04/18 09:11:27;;;;;;;12.77;10.60;;;;;;;;;;5002488;28;20192;-74
2023/04/18 09:13:55;;;;;;;13.03;10.40;;;;;;;;;;5009313;28;20287;-74
2023/04/18 09:16:22;;;;;;;13.60;10.13;;;;;;;;;;4999713;28;20289;-75
2023/04/18 09:19:09;;;;;;;11.80;10.17;;;;;;;;;;4990224;28;20207;-74
2023/04/18 09:21:38;;;;;;;14.40;11.33;;;;;;;;;;4990519;28;20191;-74
2023/04/18 09:24:27;;;;;;;12.70;9.77;;;;;;;;;;4988603;28;20197;-74
2023/04/18 09:26:54;;;;;;;14.43;11.13;;;;;;;;;;4991317;28;20282;-74
2023/04/18 09:29:21;;;;;;;18.73;10.70;;;;;;;;;;4996830;28;20221;-74
2023/04/18 09:31:53;;;;;;;11.87;9.77;;;;;;;;;;5000390;28;20190;-74
2023/04/18 09:34:23;;;;;;;12.83;10.40;;;;;;;;;;4993795;28;20647;-74
2023/04/18 09:37:06;;;;;;;12.90;9.63;;;;;;;;;;5004313;28;20234;-74
2023/04/18 09:39:33;;;;;;;11.43;9.80;;;;;;;;;;5014352;28;20214;-74
2023/04/18 09:42:00;;;;;;;14.43;11.13;;;;;;;;;;5014413;28;20330;-74
2023/04/18 09:44:26;;;;;;;12.00;9.60;;;;;;;;;;4996873;28;20207;-74
2023/04/18 09:46:53;;;;;;;12.30;9.53;;;;;;;;;;5004451;28;20697;-75
2023/04/18 09:49:19;;;;;;;11.73;9.93;;;;;;;;;;5007811;28;20267;-74
2023/04/18 09:51:46;;;;;;;12.27;9.20;;;;;;;;;;4996935;28;20230;-74
2023/04/18 09:54:16;;;;;;;10.90;9.10;;;;;;;;;;5012807;28;20200;-74
2023/04/18 09:56:46;;;;;;;11.13;8.90;;;;;;;;;;5014418;28;20204;-74
2023/04/18 09:59:16;;;;;;;13.07;9.33;;;;;;;;;;5013905;28;20750;-74
2023/04/18 10:01:46;;;;;;;10.93;9.03;;;;;;;;;;5012921;28;20222;-74
2023/04/18 10:04:14;;;;;;;11.80;9.70;;;;;;;;;;5013617;28;20206;-74
2023/04/18 10:06:41;;;;;;;12.40;10.13;;;;;;;;;;4978857;28;20216;-74
2023/04/18 10:09:09;;;;;;;11.17;9.13;;;;;;;;;;5000676;28;20190;-74
2023/04/18 10:11:35;;;;;;;10.97;8.80;;;;;;;;;;5006735;28;20206;-74
2023/04/18 10:14:04;;;;;;;10.03;8.40;;;;;;;;;;4996211;28;20206;-74
2023/04/18 10:16:31;;;;;;;11.43;9.37;;;;;;;;;;5013576;28;20211;-74
2023/04/18 10:18:57;;;;;;;12.03;9.10;;;;;;;;;;5013848;28;20239;-74
2023/04/18 10:21:26;;;;;;;9.80;8.80;;;;;;;;;;5000600;28;20271;-74
2023/04/18 10:23:52;;;;;;;10.83;8.57;;;;;;;;;;4992457;28;20231;-74
2023/04/18 10:26:19;;;;;;;10.20;7.43;;;;;;;;;;5008954;28;20273;-74
2023/04/18 10:28:50;;;;;;;8.97;8.07;;;;;;;;;;5013665;28;20728;-74
2023/04/18 10:31:16;;;;;;;10.20;8.30;;;;;;;;;;5013708;28;20214;-74
2023/04/18 10:33:51;;;;;;;9.20;7.97;;;;;;;;;;5011957;28;20191;-74
2023/04/18 10:36:19;;;;;;;10.00;7.77;;;;;;;;;;5013456;28;20596;-74
2023/04/18 10:38:47;;;;;;;9.20;8.03;;;;;;;;;;5012371;28;20261;-74
2023/04/18 10:41:16;;;;;;;9.20;7.67;;;;;;;;;;5013537;28;20681;-74
2023/04/18 10:44:01;;;;;;;8.93;7.80;;;;;;;;;;5012265;28;20260;-74
2023/04/18 10:46:28;;;;;;;9.43;8.33;;;;;;;;;;4994144;28;20180;-74
2023/04/18 10:49:13;;;;;;;8.70;7.80;;;;;;;;;;4999288;28;20195;-74
2023/04/18 10:51:39;;;;;;;7.90;7.10;;;;;;;;;;5013149;28;20189;-74
2023/04/18 10:54:07;;;;;;;9.27;7.17;;;;;;;;;;5008115;28;20224;-74
2023/04/18 10:56:34;;;;;;;8.57;7.47;;;;;;;;;;4993816;28;20646;-74
2023/04/18 10:59:02;;;;;;;7.53;6.70;;;;;;;;;;4992177;28;20690;-74
2023/04/18 11:01:32;;;;;;;8.67;7.10;;;;;;;;;;5002157;28;20182;-74
2023/04/18 11:03:58;;;;;;;15.63;9.60;;;;;;;;;;5012515;28;20313;-74
2023/04/18 11:06:30;;;;;;;8.70;7.40;;;;;;;;;;5013514;28;20175;-74
2023/04/18 11:09:09;;;;;;;7.97;7.10;;;;;;;;;;5008144;28;20196;-75
2023/04/18 11:11:35;;;;;;;8.17;7.07;;;;;;;;;;4993683;28;20180;-74
2023/04/18 11:14:02;;;;;;;9.13;7.10;;;;;;;;;;4993131;28;20207;-74
2023/04/18 11:16:29;;;;;;;7.93;7.00;;;;;;;;;;4991955;28;20180;-74
2023/04/18 11:18:56;;;;;;;7.20;6.40;;;;;;;;;;5002179;28;20249;-74
2023/04/18 11:21:26;;;;;;;6.50;5.90;;;;;;;;;;5012487;28;20706;-74
2023/04/18 11:23:56;;;;;;;6.43;5.80;;;;;;;;;;5012286;28;20185;-75
2023/04/18 11:26:25;;;;;;;7.07;6.37;;;;;;;;;;5011516;28;20630;-76
2023/04/18 11:28:52;;;;;;;6.97;6.27;;;;;;;;;;5001768;28;20191;-77
2023/04/18 11:31:22;;;;;;;7.37;6.00;;;;;;;;;;4992039;28;20194;-78
2023/04/18 11:33:48;;;;;;;7.03;6.30;;;;;;;;;;4993625;28;20183;-77
2023/04/18 11:36:14;;;;;;;6.37;5.77;;;;;;;;;;4994843;28;20587;-78
2023/04/18 11:38:41;;;;;;;6.73;6.03;;;;;;;;;;5007236;28;20195;-75
2023/04/18 11:41:13;;;;;;;6.53;5.60;;;;;;;;;;5003988;28;20629;-78
2023/04/18 11:43:44;;;;;;;6.83;5.47;;;;;;;;;;4991027;28;20192;-77
2023/04/18 11:46:10;;;;;;;6.27;5.30;;;;;;;;;;4999624;28;20862;-77
2023/04/18 11:48:37;;;;;;;6.17;5.57;;;;;;;;;;5010293;28;20187;-76
2023/04/18 11:51:04;;;;;;;5.87;5.27;;;;;;;;;;4996915;28;20194;-75
2023/04/18 11:53:34;;;;;;;5.50;5.00;;;;;;;;;;4991480;28;20188;-76
2023/04/18 11:56:02;;;;;;;6.10;5.50;;;;;;;;;;4992008;28;20207;-75
2023/04/18 11:58:32;;;;;;;5.30;4.80;;;;;;;;;;5010537;28;20211;-77
2023/04/18 12:00:59;;;;;;;5.80;5.30;;;;;;;;;;5007628;28;20285;-76
2023/04/18 12:03:27;;;;;;;5.50;5.00;;;;;;;;;;5008499;28;20183;-76
2023/04/18 12:06:00;;;;;;;5.70;5.00;;;;;;;;;;5009468;28;20674;-76
2023/04/18 12:08:27;;;;;;;5.30;4.80;;;;;;;;;;5012469;28;20188;-76
2023/04/18 12:10:54;;;;;;;5.00;4.50;;;;;;;;;;4998353;28;20556;-76
2023/04/18 12:13:31;;;;;;;5.37;4.87;;;;;;;;;;5001028;28;20273;-76
2023/04/18 12:15:57;;;;;;;4.87;4.47;;;;;;;;;;4994337;28;20282;-76
2023/04/18 12:18:24;;;;;;;5.47;4.97;;;;;;;;;;5011645;28;20207;-76
2023/04/18 12:20:53;;;;;;;5.37;4.87;;;;;;;;;;5010982;28;20278;-76
2023/04/18 12:23:29;;;;;;;5.30;4.77;;;;;;;;;;5010466;28;20541;-75
2023/04/18 12:26:03;;;;;;;5.30;4.80;;;;;;;;;;5011848;28;20198;-76
2023/04/18 12:28:30;;;;;;;7.10;4.97;;;;;;;;;;5004122;28;20267;-77
2023/04/18 12:30:57;;;;;;;5.60;5.10;;;;;;;;;;4984245;28;20191;-76
2023/04/18 12:33:23;;;;;;;5.50;5.00;;;;;;;;;;5001692;28;20190;-76
2023/04/18 12:35:51;;;;;;;5.30;4.80;;;;;;;;;;5002914;28;20219;-73
2023/04/18 12:38:20;;;;;;;5.10;4.60;;;;;;;;;;4997378;28;20225;-72
2023/04/18 12:40:46;;;;;;;5.13;4.67;;;;;;;;;;5000483;28;20266;-72
2023/04/18 12:43:13;;;;;;;4.90;4.50;;;;;;;;;;4996792;28;20529;-72
2023/04/18 12:45:40;;;;;;;4.87;4.47;;;;;;;;;;5000772;28;20204;-72
2023/04/18 12:48:08;;;;;;;5.87;4.80;;;;;;;;;;5006792;28;20180;-72
2023/04/18 12:50:34;;;;;;;4.93;4.43;;;;;;;;;;5009943;28;20187;-72
2023/04/18 12:53:01;;;;;;;4.93;4.43;;;;;;;;;;5006432;28;20226;-72
2023/04/18 12:55:28;;;;;;;6.67;4.60;;;;;;;;;;5010107;28;20199;-73
2023/04/18 12:57:54;;;;;;;5.70;4.90;;;;;;;;;;5006508;28;20708;-73
2023/04/18 13:00:22;;;;;;;5.23;4.73;;;;;;;;;;5011100;28;20183;-73
2023/04/18 13:02:49;;;;;;;4.80;4.40;;;;;;;;;;5008634;28;20189;-73
2023/04/18 13:05:16;;;;;;;5.10;4.60;;;;;;;;;;5007847;28;20210;-73
2023/04/18 13:07:43;;;;;;;6.03;4.13;;;;;;;;;;5005764;28;20249;-72
2023/04/18 13:10:10;;;;;;;5.50;4.50;;;;;;;;;;5006604;28;20212;-72
2023/04/18 13:12:37;;;;;;;4.53;4.13;;;;;;;;;;5012912;28;20258;-73
2023/04/18 13:15:05;;;;;;;4.80;4.20;;;;;;;;;;5007530;28;20211;-73
2023/04/18 13:17:35;;;;;;;4.90;4.40;;;;;;;;;;5008109;28;20195;-72
2023/04/18 13:20:06;;;;;;;4.83;4.33;;;;;;;;;;5014842;28;20187;-72
2023/04/18 13:22:33;;;;;;;5.00;4.40;;;;;;;;;;5020722;28;20178;-72
2023/04/18 13:25:00;;;;;;;4.70;4.30;;;;;;;;;;5014038;28;21185;-73
2023/04/18 13:27:26;;;;;;;4.30;3.90;;;;;;;;;;5004213;28;20802;-72
2023/04/18 13:29:53;;;;;;;5.00;4.50;;;;;;;;;;5012232;28;20179;-72
2023/04/18 13:32:20;;;;;;;4.73;4.33;;;;;;;;;;5013735;28;20278;-72
2023/04/18 13:34:47;;;;;;;5.47;4.23;;;;;;;;;;5014515;28;20202;-72
2023/04/18 13:37:13;;;;;;;5.73;4.13;;;;;;;;;;5003669;28;20274;-72
2023/04/18 13:39:39;;;;;;;5.10;4.60;;;;;;;;;;4999233;28;20203;-72
2023/04/18 13:42:06;;;;;;;5.03;4.53;;;;;;;;;;5006657;28;20722;-72
2023/04/18 13:44:36;;;;;;;5.10;4.60;;;;;;;;;;5003435;28;20211;-73
2023/04/18 13:47:03;;;;;;;4.83;4.37;;;;;;;;;;5018587;28;20206;-73
2023/04/18 13:49:30;;;;;;;6.10;5.50;;;;;;;;;;5017280;28;20170;-73
2023/04/18 13:51:56;;;;;;;6.40;5.77;;;;;;;;;;5013262;28;20667;-73
2023/04/18 13:54:26;;;;;;;6.93;5.50;;;;;;;;;;5013046;28;20210;-73
2023/04/18 13:56:53;;;;;;;5.30;4.80;;;;;;;;;;5009812;28;20187;-73
2023/04/18 13:59:20;;;;;;;6.70;4.87;;;;;;;;;;5010863;28;20282;-73
2023/04/18 14:01:46;;;;;;;5.60;5.10;;;;;;;;;;5001122;28;20195;-72
2023/04/18 14:04:12;;;;;;;5.33;4.83;;;;;;;;;;5008643;28;20205;-72
2023/04/18 14:06:39;;;;;;;5.27;4.80;;;;;;;;;;4997739;28;20246;-72
2023/04/18 14:09:06;;;;;;;5.40;4.87;;;;;;;;;;4995820;28;20206;-72
2023/04/18 14:11:32;;;;;;;5.40;4.87;;;;;;;;;;5001931;28;20187;-72
2023/04/18 14:13:58;;;;;;;4.47;4.07;;;;;;;;;;5018983;28;20195;-72
2023/04/18 14:16:24;;;;;;;5.70;4.60;;;;;;;;;;5013670;28;20179;-73
2023/04/18 14:18:52;;;;;;;5.47;4.90;;;;;;;;;;5010809;28;20236;-73
2023/04/18 14:21:18;;;;;;;4.40;4.00;;;;;;;;;;5007355;28;20189;-73
2023/04/18 14:23:44;;;;;;;4.27;3.87;;;;;;;;;;5006042;28;20172;-73
2023/04/18 14:26:11;;;;;;;5.43;4.93;;;;;;;;;;5012422;28;20259;-73
2023/04/18 14:28:37;;;;;;;4.77;4.37;;;;;;;;;;5005736;28;20521;-73
2023/04/18 14:31:05;;;;;;;5.50;5.00;;;;;;;;;;5005546;28;20267;-72